Guanaja, Honduras
Current Conditions -  °F | °C
As of 8:00 PM on Saturday 22 Nov 2014 (Local Time) from MHRO Reporting Station
Scattered Clouds Scattered Clouds  
Wind Chill: 79°   Ceiling: Unl
Heat Index: 82°   Visibility: 6mi
Dew Point: 73°   Wind: 3mph
Humidity: 83%   Direction: 360°N
Pressure: 29.94"   Gusts: NA
Location:  16.43°N, 85.88°W
Report Text: MHRO 230200Z 36003KT 9999 SCT020 26/23 Q1014 A2994 NOSIG
Loading
Personal Weather Stations






























Interactive Weather Map New forecast layout! Learn more

10-Day Weather Forecast

Advertisements
Track Severe Weather on mobile